createdAt,value
2022-09-29T00:00:00.094Z,11.10
2022-09-29T00:00:59.959Z,11.11
2022-09-29T00:02:00.059Z,11.08
2022-09-29T00:03:00.012Z,11.04
2022-09-29T00:03:59.954Z,11.08
2022-09-29T00:04:59.961Z,11.11
2022-09-29T00:05:59.906Z,11.08
2022-09-29T00:06:59.893Z,11.07
2022-09-29T00:07:59.908Z,10.99
2022-09-29T00:08:59.887Z,11.14
2022-09-29T00:09:59.868Z,11.07
2022-09-29T00:10:59.858Z,11.07
2022-09-29T00:11:59.843Z,10.99
2022-09-29T00:12:59.828Z,10.94
2022-09-29T00:13:59.842Z,11.02
2022-09-29T00:14:59.800Z,10.86
2022-09-29T00:15:59.873Z,10.90
2022-09-29T00:16:59.798Z,10.87
2022-09-29T00:18:13.701Z,10.90
2022-09-29T00:19:00.819Z,10.87
2022-09-29T00:19:59.773Z,10.89
2022-09-29T00:20:59.751Z,10.84
2022-09-29T00:21:59.724Z,10.79
2022-09-29T00:22:59.897Z,10.76
2022-09-29T00:23:59.737Z,10.72
2022-09-29T00:24:59.701Z,10.69
2022-09-29T00:25:59.709Z,10.69
2022-09-29T00:26:59.675Z,10.71
2022-09-29T00:27:59.657Z,10.74
2022-09-29T00:29:00.346Z,10.76
2022-09-29T00:29:59.657Z,10.69
2022-09-29T00:30:59.635Z,10.69
2022-09-29T00:31:59.662Z,10.59
2022-09-29T00:32:59.613Z,10.57
2022-09-29T00:33:59.593Z,10.59
2022-09-29T00:34:59.667Z,10.44
2022-09-29T00:35:59.574Z,10.44
2022-09-29T00:36:59.559Z,10.37
2022-09-29T00:37:59.555Z,10.38
2022-09-29T00:38:59.551Z,10.33
2022-09-29T00:39:59.730Z,10.22
2022-09-29T00:40:59.535Z,10.17
2022-09-29T00:41:59.514Z,10.17
2022-09-29T00:42:59.490Z,10.17
2022-09-29T00:43:59.498Z,10.19
2022-09-29T00:44:59.467Z,10.12
2022-09-29T00:45:59.523Z,10.13
2022-09-29T00:46:59.475Z,10.20
2022-09-29T00:47:59.449Z,10.17
2022-09-29T00:49:00.328Z,10.22
2022-09-29T00:49:59.418Z,10.13
2022-09-29T00:50:59.403Z,10.16
2022-09-29T00:51:59.391Z,10.26
2022-09-29T00:52:59.862Z,10.25
2022-09-29T00:53:59.371Z,10.19
2022-09-29T00:54:59.362Z,10.25
2022-09-29T00:55:59.387Z,10.23
2022-09-29T00:56:59.341Z,10.17
2022-09-29T00:57:59.337Z,10.12
2022-09-29T00:58:59.324Z,10.22
2022-09-29T00:59:59.818Z,10.28
2022-09-29T01:00:59.405Z,10.25
2022-09-29T01:01:59.395Z,10.25
2022-09-29T01:02:59.296Z,10.09
2022-09-29T01:03:59.257Z,10.13
2022-09-29T01:04:59.256Z,10.15
2022-09-29T01:05:59.237Z,10.12
2022-09-29T01:06:59.229Z,10.09
2022-09-29T01:07:59.232Z,10.09
2022-09-29T01:08:59.215Z,10.02
2022-09-29T01:09:59.205Z,9.98
2022-09-29T01:10:59.198Z,10.07
2022-09-29T01:11:59.211Z,10.09
2022-09-29T01:12:59.178Z,10.02
2022-09-29T01:13:59.149Z,10.02
2022-09-29T01:14:59.150Z,10.12
2022-09-29T01:15:59.162Z,10.05
2022-09-29T01:16:59.133Z,10.02
2022-09-29T01:17:59.147Z,10.07
2022-09-29T01:18:59.097Z,10.10
2022-09-29T01:20:04.068Z,10.12
2022-09-29T01:20:59.070Z,10.02
2022-09-29T01:21:59.069Z,9.98
2022-09-29T01:22:59.046Z,10.04
2022-09-29T01:23:59.043Z,10.07
2022-09-29T01:24:59.051Z,10.05
2022-09-29T01:25:59.049Z,10.07
2022-09-29T01:26:59.003Z,9.98
2022-09-29T01:27:59.013Z,9.99
2022-09-29T01:28:58.988Z,10.04
2022-09-29T01:29:58.980Z,9.91
2022-09-29T01:30:58.980Z,9.91
2022-09-29T01:32:00.026Z,9.79
2022-09-29T01:32:58.941Z,9.77
2022-09-29T01:33:58.932Z,9.84
2022-09-29T01:34:58.930Z,9.86
2022-09-29T01:35:58.913Z,9.79
2022-09-29T01:36:58.893Z,9.83
2022-09-29T01:37:58.904Z,9.76
2022-09-29T01:38:58.876Z,9.86
2022-09-29T01:39:58.871Z,9.87
2022-09-29T01:40:58.968Z,9.91
2022-09-29T01:41:58.862Z,9.86
2022-09-29T01:42:58.827Z,9.89
2022-09-29T01:43:58.840Z,9.95
2022-09-29T01:44:58.808Z,9.99
2022-09-29T01:45:58.897Z,10.01
2022-09-29T01:46:59.363Z,10.01
2022-09-29T01:47:58.805Z,9.99
2022-09-29T01:48:58.765Z,9.99
2022-09-29T01:49:58.757Z,10.16
2022-09-29T01:50:58.770Z,10.15
2022-09-29T01:51:58.757Z,10.25
2022-09-29T01:52:58.739Z,10.26
2022-09-29T01:53:58.719Z,10.17
2022-09-29T01:54:58.699Z,10.30
2022-09-29T01:55:58.688Z,10.26
2022-09-29T01:56:58.675Z,10.26
2022-09-29T01:57:58.663Z,10.37
2022-09-29T01:58:58.771Z,10.17
2022-09-29T01:59:58.661Z,10.22
2022-09-29T02:00:58.737Z,10.26
2022-09-29T02:02:00.805Z,10.16
2022-09-29T02:02:58.697Z,10.12
2022-09-29T02:03:58.599Z,10.13
2022-09-29T02:04:58.663Z,10.17
2022-09-29T02:05:58.576Z,10.15
2022-09-29T02:06:58.602Z,10.23
2022-09-29T02:07:58.572Z,10.19
2022-09-29T02:08:58.554Z,10.13
2022-09-29T02:09:58.540Z,10.15
2022-09-29T02:10:58.539Z,10.15
2022-09-29T02:11:58.510Z,10.19
2022-09-29T02:12:58.501Z,10.07
2022-09-29T02:13:58.490Z,10.09
2022-09-29T02:14:58.497Z,10.04
2022-09-29T02:15:59.363Z,9.95
2022-09-29T02:16:58.539Z,9.98
2022-09-29T02:17:58.443Z,9.95
2022-09-29T02:18:58.788Z,9.87
2022-09-29T02:19:58.425Z,9.86
2022-09-29T02:20:58.412Z,9.89
2022-09-29T02:21:58.414Z,9.92
2022-09-29T02:22:58.397Z,9.87
2022-09-29T02:23:58.377Z,9.82
2022-09-29T02:24:58.367Z,9.84
2022-09-29T02:25:58.357Z,9.76
2022-09-29T02:26:58.371Z,9.76
2022-09-29T02:27:58.349Z,9.66
2022-09-29T02:28:58.320Z,9.72
2022-09-29T02:29:58.314Z,9.73
2022-09-29T02:30:58.301Z,9.83
2022-09-29T02:31:58.434Z,9.74
2022-09-29T02:32:58.311Z,9.72
2022-09-29T02:33:58.267Z,9.76
2022-09-29T02:34:58.257Z,9.69
2022-09-29T02:35:58.245Z,9.69
2022-09-29T02:36:58.233Z,9.69
2022-09-29T02:37:58.244Z,9.68
2022-09-29T02:38:58.236Z,9.69
2022-09-29T02:39:58.209Z,9.58
2022-09-29T02:40:58.256Z,9.61
2022-09-29T02:41:58.179Z,9.61
2022-09-29T02:42:58.999Z,9.65
2022-09-29T02:43:58.158Z,9.65
2022-09-29T02:44:58.146Z,9.76
2022-09-29T02:45:59.024Z,9.77
2022-09-29T02:46:58.169Z,9.66
2022-09-29T02:47:58.136Z,9.66
2022-09-29T02:48:58.107Z,9.68
2022-09-29T02:49:58.091Z,9.69
2022-09-29T02:50:58.102Z,9.69
2022-09-29T02:51:58.797Z,9.72
2022-09-29T02:52:58.069Z,9.68
2022-09-29T02:53:58.047Z,9.68
2022-09-29T02:54:58.035Z,9.69
2022-09-29T02:55:58.026Z,9.69
2022-09-29T02:56:58.025Z,9.64
2022-09-29T02:57:58.019Z,9.64
2022-09-29T02:58:58.027Z,9.56
2022-09-29T02:59:58.001Z,9.62
2022-09-29T03:00:58.021Z,9.62
2022-09-29T03:01:57.962Z,9.55
2022-09-29T03:02:57.965Z,9.59
2022-09-29T03:04:02.091Z,9.59
2022-09-29T03:04:58.926Z,9.55
2022-09-29T03:05:57.915Z,9.55
2022-09-29T03:06:57.929Z,9.58
2022-09-29T03:07:57.894Z,9.59
2022-09-29T03:08:59.012Z,9.64
2022-09-29T03:09:57.934Z,9.62
2022-09-29T03:10:57.900Z,9.50
2022-09-29T03:11:57.876Z,9.48
2022-09-29T03:12:57.880Z,9.34
2022-09-29T03:13:57.942Z,9.36
2022-09-29T03:14:57.829Z,9.32
2022-09-29T03:15:57.894Z,9.29
2022-09-29T03:16:57.792Z,9.23
2022-09-29T03:17:58.884Z,9.22
2022-09-29T03:18:57.796Z,9.18
2022-09-29T03:19:57.957Z,9.04
2022-09-29T03:20:57.764Z,8.99
2022-09-29T03:21:57.739Z,8.99
2022-09-29T03:22:57.728Z,8.89
2022-09-29T03:23:57.979Z,8.91
2022-09-29T03:24:57.736Z,8.84
2022-09-29T03:25:57.708Z,8.88
2022-09-29T03:26:57.711Z,8.91
2022-09-29T03:27:57.725Z,8.79
2022-09-29T03:28:57.698Z,8.81
2022-09-29T03:29:57.672Z,8.70
2022-09-29T03:30:57.738Z,8.81
2022-09-29T03:31:57.645Z,8.87
2022-09-29T03:32:57.616Z,8.84
2022-09-29T03:33:57.628Z,8.91
2022-09-29T03:34:57.604Z,8.84
2022-09-29T03:35:57.620Z,8.89
2022-09-29T03:36:57.578Z,8.95
2022-09-29T03:37:57.680Z,8.97
2022-09-29T03:38:57.552Z,8.99
2022-09-29T03:39:57.544Z,9.06
2022-09-29T03:40:57.595Z,8.97
2022-09-29T03:41:57.713Z,8.99
2022-09-29T03:42:57.519Z,8.94
2022-09-29T03:43:57.515Z,9.03
2022-09-29T03:44:57.557Z,8.91
2022-09-29T03:45:57.526Z,8.97
2022-09-29T03:46:57.470Z,8.97
2022-09-29T03:47:57.457Z,8.92
2022-09-29T03:48:57.500Z,8.88
2022-09-29T03:49:57.465Z,8.94
2022-09-29T03:50:57.421Z,9.03
2022-09-29T03:51:57.436Z,9.02
2022-09-29T03:52:57.438Z,9.10
2022-09-29T03:53:57.425Z,9.02
2022-09-29T03:54:57.385Z,9.02
2022-09-29T03:55:57.400Z,9.08
2022-09-29T03:56:58.178Z,9.11
2022-09-29T03:57:57.360Z,9.04
2022-09-29T03:58:57.346Z,9.13
2022-09-29T03:59:57.330Z,9.14
2022-09-29T04:00:57.414Z,9.13
2022-09-29T04:01:57.334Z,9.23
2022-09-29T04:02:57.298Z,9.23
2022-09-29T04:03:57.315Z,9.19
2022-09-29T04:04:57.307Z,9.21
2022-09-29T04:05:57.262Z,9.11
2022-09-29T04:06:57.262Z,9.23
2022-09-29T04:07:57.318Z,9.23
2022-09-29T04:08:57.241Z,9.18
2022-09-29T04:09:57.236Z,9.22
2022-09-29T04:10:57.212Z,9.22
2022-09-29T04:11:57.197Z,9.22
2022-09-29T04:12:57.219Z,9.22
2022-09-29T04:13:57.173Z,9.22
2022-09-29T04:14:57.177Z,9.18
2022-09-29T04:15:57.235Z,9.23
2022-09-29T04:16:57.147Z,9.22
2022-09-29T04:17:57.149Z,9.29
2022-09-29T04:18:57.126Z,9.18
2022-09-29T04:19:57.106Z,9.23
2022-09-29T04:20:57.146Z,9.11
2022-09-29T04:21:57.126Z,9.21
2022-09-29T04:22:57.111Z,9.19
2022-09-29T04:23:57.087Z,9.13
2022-09-29T04:24:57.085Z,9.10
2022-09-29T04:25:57.040Z,9.13
2022-09-29T04:26:57.054Z,9.13
2022-09-29T04:27:57.027Z,9.14
2022-09-29T04:28:57.037Z,9.19
2022-09-29T04:29:57.018Z,9.16
2022-09-29T04:30:57.027Z,9.14
2022-09-29T04:31:57.123Z,9.11
2022-09-29T04:32:57.032Z,9.08
2022-09-29T04:33:56.983Z,9.14
2022-09-29T04:34:56.943Z,9.14
2022-09-29T04:35:56.936Z,9.21
2022-09-29T04:36:56.947Z,9.14
2022-09-29T04:37:56.912Z,9.23
2022-09-29T04:38:56.898Z,9.18
2022-09-29T04:39:56.929Z,9.10
2022-09-29T04:40:56.951Z,9.08
2022-09-29T04:41:56.884Z,9.18
2022-09-29T04:42:56.883Z,9.11
2022-09-29T04:43:56.855Z,9.13
2022-09-29T04:44:56.873Z,9.13
2022-09-29T04:45:56.895Z,9.10
2022-09-29T04:46:56.830Z,9.13
2022-09-29T04:47:56.829Z,9.06
2022-09-29T04:48:56.788Z,9.21
2022-09-29T04:49:56.777Z,9.22
2022-09-29T04:50:56.771Z,9.18
2022-09-29T04:51:56.756Z,9.23
2022-09-29T04:52:56.773Z,9.16
2022-09-29T04:53:56.757Z,9.19
2022-09-29T04:54:56.724Z,9.23
2022-09-29T04:55:56.744Z,9.21
2022-09-29T04:56:56.704Z,9.19
2022-09-29T04:57:56.716Z,9.22
2022-09-29T04:58:56.684Z,9.19
2022-09-29T04:59:56.705Z,9.10
2022-09-29T05:00:56.746Z,9.08
2022-09-29T05:01:56.710Z,9.00
2022-09-29T05:02:56.652Z,8.95
2022-09-29T05:03:56.656Z,8.95
2022-09-29T05:04:56.623Z,8.84
2022-09-29T05:05:56.637Z,8.78
2022-09-29T05:06:56.681Z,8.67
2022-09-29T05:07:56.615Z,8.64
2022-09-29T05:08:56.585Z,8.55
2022-09-29T05:09:56.621Z,8.49
2022-09-29T05:10:56.604Z,8.46
2022-09-29T05:11:56.583Z,8.48
2022-09-29T05:12:56.565Z,8.48
2022-09-29T05:13:56.536Z,8.49
2022-09-29T05:14:56.540Z,8.37
2022-09-29T05:15:56.558Z,8.42
2022-09-29T05:16:56.486Z,8.28
2022-09-29T05:17:56.470Z,8.24
2022-09-29T05:18:56.517Z,8.33
2022-09-29T05:19:56.468Z,8.18
2022-09-29T05:21:22.963Z,8.18
2022-09-29T05:21:56.444Z,8.15
2022-09-29T05:22:56.439Z,8.28
2022-09-29T05:23:56.453Z,8.31
2022-09-29T05:24:56.395Z,8.37
2022-09-29T05:25:56.462Z,8.36
2022-09-29T05:26:58.604Z,8.34
2022-09-29T05:27:56.382Z,8.33
2022-09-29T05:28:56.394Z,8.42
2022-09-29T05:29:56.395Z,8.41
2022-09-29T05:30:56.349Z,8.49
2022-09-29T05:31:56.428Z,8.45
2022-09-29T05:32:59.026Z,8.56
2022-09-29T05:33:56.335Z,8.60
2022-09-29T05:34:56.339Z,8.46
2022-09-29T05:35:56.275Z,8.42
2022-09-29T05:36:56.286Z,8.55
2022-09-29T05:37:56.268Z,8.49
2022-09-29T05:38:56.349Z,8.52
2022-09-29T05:39:56.248Z,8.56
2022-09-29T05:40:56.316Z,8.61
2022-09-29T05:41:59.494Z,8.71
2022-09-29T05:42:56.221Z,8.78
2022-09-29T05:43:56.209Z,8.79
2022-09-29T05:44:56.207Z,8.66
2022-09-29T05:45:56.271Z,8.71
2022-09-29T05:46:56.183Z,8.67
2022-09-29T05:47:56.142Z,8.78
2022-09-29T05:48:56.135Z,8.79
2022-09-29T05:49:56.131Z,8.84
2022-09-29T05:50:56.147Z,8.82
2022-09-29T05:51:56.126Z,8.91
2022-09-29T05:52:56.118Z,8.88
2022-09-29T05:53:56.080Z,8.95
2022-09-29T05:54:56.090Z,8.97
2022-09-29T05:55:56.068Z,9.02
2022-09-29T05:56:56.052Z,9.00
2022-09-29T05:57:56.041Z,9.04
2022-09-29T05:58:56.063Z,9.04
2022-09-29T05:59:56.029Z,9.13
2022-09-29T06:00:56.029Z,9.00
2022-09-29T06:01:56.067Z,8.91
2022-09-29T06:02:55.984Z,8.91
2022-09-29T06:03:56.020Z,8.91
2022-09-29T06:04:55.960Z,8.82
2022-09-29T06:05:55.967Z,8.92
2022-09-29T06:06:55.960Z,8.94
2022-09-29T06:07:55.957Z,9.04
2022-09-29T06:08:55.966Z,9.14
2022-09-29T06:09:55.965Z,9.13
2022-09-29T06:10:55.931Z,9.18
2022-09-29T06:11:55.927Z,9.26
2022-09-29T06:12:55.875Z,9.26
2022-09-29T06:13:55.857Z,9.40
2022-09-29T06:14:55.958Z,9.46
2022-09-29T06:15:55.888Z,9.43
2022-09-29T06:16:55.865Z,9.55
2022-09-29T06:17:55.912Z,9.56
2022-09-29T06:18:55.835Z,9.64
2022-09-29T06:19:55.790Z,9.64
2022-09-29T06:20:55.783Z,9.73
2022-09-29T06:21:55.794Z,9.73
2022-09-29T06:22:55.759Z,9.66
2022-09-29T06:23:55.800Z,9.84
2022-09-29T06:24:55.927Z,9.83
2022-09-29T06:25:55.735Z,9.83
2022-09-29T06:26:55.740Z,9.89
2022-09-29T06:27:55.725Z,10.02
2022-09-29T06:28:55.707Z,10.02
2022-09-29T06:29:55.682Z,10.07
2022-09-29T06:30:55.687Z,10.12
2022-09-29T06:31:55.748Z,10.13
2022-09-29T06:32:55.674Z,10.15
2022-09-29T06:33:55.665Z,10.23
2022-09-29T06:34:58.518Z,10.19
2022-09-29T06:35:55.633Z,10.25
2022-09-29T06:36:55.664Z,10.33
2022-09-29T06:37:55.600Z,10.28
2022-09-29T06:38:55.632Z,10.20
2022-09-29T06:39:55.606Z,10.26
2022-09-29T06:40:55.669Z,10.35
2022-09-29T06:41:55.552Z,10.40
2022-09-29T06:42:55.538Z,10.44
2022-09-29T06:43:56.616Z,10.48
2022-09-29T06:44:55.541Z,10.57
2022-09-29T06:45:55.645Z,10.51
2022-09-29T06:46:55.501Z,10.53
2022-09-29T06:47:55.508Z,10.60
2022-09-29T06:48:55.517Z,10.67
2022-09-29T06:49:59.819Z,10.74
2022-09-29T06:51:06.606Z,10.72
2022-09-29T06:51:55.445Z,10.75
2022-09-29T06:53:04.114Z,10.67
2022-09-29T06:54:07.978Z,10.78
2022-09-29T06:54:55.411Z,10.74
2022-09-29T06:55:55.436Z,10.81
2022-09-29T06:56:55.635Z,10.76
2022-09-29T06:57:57.894Z,10.84
2022-09-29T06:58:55.366Z,10.90
2022-09-29T06:59:55.429Z,10.87
2022-09-29T07:00:55.433Z,10.97
2022-09-29T07:01:55.450Z,10.96
2022-09-29T07:02:55.349Z,10.97
2022-09-29T07:03:55.375Z,11.02
2022-09-29T07:04:55.360Z,11.04
2022-09-29T07:06:18.959Z,11.07
2022-09-29T07:06:56.304Z,11.08
2022-09-29T07:08:00.101Z,11.08
2022-09-29T07:08:55.324Z,11.07
2022-09-29T07:09:55.261Z,11.02
2022-09-29T07:10:55.299Z,11.08
2022-09-29T07:11:55.247Z,11.14
2022-09-29T07:12:55.231Z,11.19
2022-09-29T07:13:55.401Z,11.26
2022-09-29T07:14:55.222Z,11.22
2022-09-29T07:15:55.178Z,11.26
2022-09-29T07:16:55.308Z,11.35
2022-09-29T07:17:55.156Z,11.35
2022-09-29T07:18:55.175Z,11.36
2022-09-29T07:19:55.179Z,11.43
2022-09-29T07:20:55.132Z,11.45
2022-09-29T07:21:55.122Z,11.37
2022-09-29T07:22:55.145Z,11.52
2022-09-29T07:23:58.727Z,11.51
2022-09-29T07:24:55.113Z,11.59
2022-09-29T07:25:55.129Z,11.57
2022-09-29T07:26:55.092Z,11.59
2022-09-29T07:27:55.054Z,11.62
2022-09-29T07:28:55.070Z,11.55
2022-09-29T07:30:03.280Z,11.60
2022-09-29T07:31:01.320Z,11.60
2022-09-29T07:31:55.080Z,11.62
2022-09-29T07:33:01.030Z,11.60
2022-09-29T07:33:55.044Z,11.65
2022-09-29T07:34:54.967Z,11.73
2022-09-29T07:35:54.978Z,11.75
2022-09-29T07:36:54.990Z,11.87
2022-09-29T07:37:54.963Z,11.90
2022-09-29T07:38:54.950Z,12.00
2022-09-29T07:39:54.934Z,11.94
2022-09-29T07:40:54.946Z,12.02
2022-09-29T07:41:54.925Z,12.00
2022-09-29T07:42:54.964Z,11.99
2022-09-29T07:43:54.906Z,12.10
2022-09-29T07:44:54.857Z,12.12
2022-09-29T07:45:54.967Z,12.18
2022-09-29T07:46:54.878Z,12.17
2022-09-29T07:47:54.860Z,12.22
2022-09-29T07:48:54.808Z,12.31
2022-09-29T07:49:54.879Z,12.31
2022-09-29T07:50:54.794Z,12.36
2022-09-29T07:51:54.808Z,12.31
2022-09-29T07:52:54.858Z,12.39
2022-09-29T07:53:54.771Z,12.39
2022-09-29T07:54:54.770Z,12.43
2022-09-29T07:55:54.814Z,12.45
2022-09-29T07:56:54.920Z,12.47
2022-09-29T07:57:54.733Z,12.47
2022-09-29T07:58:54.718Z,12.53
2022-09-29T07:59:54.722Z,12.57
2022-09-29T08:00:54.766Z,12.64
2022-09-29T08:01:54.713Z,12.60
2022-09-29T08:02:54.655Z,12.50
2022-09-29T08:03:54.692Z,12.58
2022-09-29T08:05:00.019Z,12.64
2022-09-29T08:05:54.649Z,12.58
2022-09-29T08:06:54.609Z,12.61
2022-09-29T08:07:54.614Z,12.72
2022-09-29T08:09:03.442Z,12.70
2022-09-29T08:09:54.747Z,12.72
2022-09-29T08:10:54.578Z,12.83
2022-09-29T08:12:06.317Z,12.82
2022-09-29T08:12:54.588Z,12.83
2022-09-29T08:13:54.534Z,12.93
2022-09-29T08:14:54.540Z,12.85
2022-09-29T08:15:54.525Z,12.83
2022-09-29T08:16:54.658Z,12.94
2022-09-29T08:17:54.489Z,13.01
2022-09-29T08:18:54.496Z,12.94
2022-09-29T08:19:54.507Z,13.03
2022-09-29T08:20:54.820Z,13.11
2022-09-29T08:21:54.450Z,13.13
2022-09-29T08:22:54.486Z,13.05
2022-09-29T08:23:54.449Z,13.15
2022-09-29T08:24:54.413Z,13.18
2022-09-29T08:26:01.429Z,13.13
2022-09-29T08:26:54.412Z,13.16
2022-09-29T08:27:55.934Z,13.23
2022-09-29T08:29:04.775Z,13.18
2022-09-29T08:29:54.368Z,13.09
2022-09-29T08:30:54.369Z,13.18
2022-09-29T08:31:54.507Z,13.13
2022-09-29T08:32:54.326Z,13.22
2022-09-29T08:33:54.333Z,13.25
2022-09-29T08:34:54.337Z,13.38
2022-09-29T08:35:54.337Z,13.35
2022-09-29T08:36:54.359Z,13.31
2022-09-29T08:37:54.381Z,13.41
2022-09-29T08:38:54.309Z,13.42
2022-09-29T08:39:54.319Z,13.50
2022-09-29T08:40:54.327Z,13.56
2022-09-29T08:41:54.282Z,13.60
2022-09-29T08:42:54.270Z,13.56
2022-09-29T08:43:54.312Z,13.60
2022-09-29T08:44:55.205Z,13.71
2022-09-29T08:46:00.553Z,13.70
2022-09-29T08:47:07.629Z,13.70
2022-09-29T08:47:54.271Z,13.85
2022-09-29T08:48:58.383Z,13.87
2022-09-29T08:49:54.132Z,13.79
2022-09-29T08:50:54.169Z,13.72
2022-09-29T08:51:54.209Z,13.71
2022-09-29T08:52:54.140Z,13.72
2022-09-29T08:54:02.244Z,13.59
2022-09-29T08:54:54.160Z,13.67
2022-09-29T08:55:54.095Z,13.63
2022-09-29T08:56:54.120Z,13.75
2022-09-29T08:57:54.080Z,13.70
2022-09-29T08:58:54.048Z,13.78
2022-09-29T08:59:54.075Z,13.92
2022-09-29T09:00:54.116Z,13.92
2022-09-29T09:01:54.059Z,13.87
2022-09-29T09:02:56.755Z,13.90
2022-09-29T09:03:54.000Z,13.97
2022-09-29T09:04:53.986Z,13.95
2022-09-29T09:05:53.964Z,14.08
2022-09-29T09:06:53.990Z,14.11
2022-09-29T09:07:53.993Z,14.08
2022-09-29T09:08:53.937Z,14.17
2022-09-29T09:09:53.959Z,14.22
2022-09-29T09:10:53.914Z,14.23
2022-09-29T09:11:53.938Z,14.22
2022-09-29T09:12:53.951Z,14.29
2022-09-29T09:13:53.869Z,14.28
2022-09-29T09:14:53.890Z,14.29
2022-09-29T09:15:53.867Z,14.30
2022-09-29T09:16:53.908Z,14.43
2022-09-29T09:17:53.884Z,14.45
2022-09-29T09:18:53.918Z,14.47
2022-09-29T09:19:53.843Z,14.37
2022-09-29T09:20:53.800Z,14.33
2022-09-29T09:21:53.841Z,14.30
2022-09-29T09:22:53.779Z,14.30
2022-09-29T09:23:56.834Z,14.35
2022-09-29T09:24:53.846Z,14.41
2022-09-29T09:25:53.800Z,14.43
2022-09-29T09:26:53.783Z,14.45
2022-09-29T09:27:53.786Z,14.50
2022-09-29T09:28:53.787Z,14.50
2022-09-29T09:29:53.737Z,14.45
2022-09-29T09:30:53.733Z,14.48
2022-09-29T09:31:53.802Z,14.47
2022-09-29T09:32:53.705Z,14.50
2022-09-29T09:34:03.973Z,14.51
2022-09-29T09:34:57.689Z,14.51
2022-09-29T09:35:58.473Z,14.43
2022-09-29T09:37:04.917Z,14.62
2022-09-29T09:37:53.664Z,14.69
2022-09-29T09:38:53.646Z,14.72
2022-09-29T09:39:53.598Z,14.70
2022-09-29T09:40:53.677Z,14.88
2022-09-29T09:41:53.575Z,14.82
2022-09-29T09:42:53.612Z,14.82
2022-09-29T09:43:53.575Z,14.89
2022-09-29T09:44:53.572Z,15.04
2022-09-29T09:45:53.584Z,14.92
2022-09-29T09:46:53.583Z,14.97
2022-09-29T09:47:53.617Z,15.04
2022-09-29T09:48:53.520Z,15.09
2022-09-29T09:49:53.482Z,15.09
2022-09-29T09:50:53.517Z,15.09
2022-09-29T09:51:53.492Z,15.09
2022-09-29T09:52:53.525Z,15.21
2022-09-29T09:53:53.516Z,15.15
2022-09-29T09:54:53.429Z,15.29
2022-09-29T09:55:53.498Z,15.28
2022-09-29T09:56:53.477Z,15.31
2022-09-29T09:57:53.408Z,15.37
2022-09-29T09:58:53.471Z,15.42
2022-09-29T09:59:56.637Z,15.57
2022-09-29T10:00:53.453Z,15.58
2022-09-29T10:01:53.339Z,15.57
2022-09-29T10:02:53.389Z,15.61
2022-09-29T10:03:53.342Z,15.59
2022-09-29T10:04:53.352Z,15.64
2022-09-29T10:05:53.350Z,15.55
2022-09-29T10:06:53.413Z,15.70
2022-09-29T10:07:53.367Z,15.76
2022-09-29T10:08:53.423Z,15.79
2022-09-29T10:09:53.269Z,15.90
2022-09-29T10:10:58.751Z,15.98
2022-09-29T10:11:54.264Z,15.92
2022-09-29T10:12:57.739Z,15.86
2022-09-29T10:13:53.208Z,15.91
2022-09-29T10:14:53.249Z,15.83
2022-09-29T10:15:53.202Z,15.88
2022-09-29T10:16:53.197Z,15.82
2022-09-29T10:17:53.165Z,15.82
2022-09-29T10:18:53.163Z,15.79
2022-09-29T10:19:53.177Z,15.76
2022-09-29T10:20:53.148Z,15.68
2022-09-29T10:21:53.119Z,15.67
2022-09-29T10:22:53.106Z,15.58
2022-09-29T10:23:53.101Z,15.59
2022-09-29T10:24:53.108Z,15.62
2022-09-29T10:25:53.071Z,15.58
2022-09-29T10:26:53.124Z,15.58
2022-09-29T10:27:53.055Z,15.62
2022-09-29T10:28:53.040Z,15.57
2022-09-29T10:29:53.042Z,15.55
2022-09-29T10:30:53.077Z,15.54
2022-09-29T10:31:53.070Z,15.57
2022-09-29T10:32:53.013Z,15.54
2022-09-29T10:33:52.994Z,15.49
2022-09-29T10:34:52.998Z,15.46
2022-09-29T10:35:52.981Z,15.44
2022-09-29T10:36:52.977Z,15.35
2022-09-29T10:37:52.938Z,15.51
2022-09-29T10:38:53.144Z,15.42
2022-09-29T10:39:52.916Z,15.43
2022-09-29T10:40:52.909Z,15.37
2022-09-29T10:41:52.923Z,15.31
2022-09-29T10:42:52.928Z,15.28
2022-09-29T10:43:53.044Z,15.37
2022-09-29T10:44:52.858Z,15.21
2022-09-29T10:45:53.064Z,15.10
2022-09-29T10:46:52.868Z,15.27
2022-09-29T10:47:52.867Z,15.28
2022-09-29T10:48:52.832Z,15.29
2022-09-29T10:49:52.804Z,15.25
2022-09-29T10:50:52.883Z,15.28
2022-09-29T10:51:52.797Z,15.17
2022-09-29T10:52:52.793Z,15.33
2022-09-29T10:53:52.936Z,15.31
2022-09-29T10:54:52.759Z,15.28
2022-09-29T10:55:52.747Z,15.24
2022-09-29T10:56:52.727Z,15.31
2022-09-29T10:57:52.738Z,15.24
2022-09-29T10:59:04.439Z,15.21
2022-09-29T10:59:53.727Z,15.19
2022-09-29T11:00:52.734Z,15.27
2022-09-29T11:01:52.681Z,15.33
2022-09-29T11:02:52.659Z,15.27
2022-09-29T11:03:52.758Z,15.21
2022-09-29T11:04:52.639Z,15.21
2022-09-29T11:05:52.647Z,15.11
2022-09-29T11:06:52.634Z,15.15
2022-09-29T11:07:52.611Z,15.14
2022-09-29T11:08:52.598Z,15.18
2022-09-29T11:09:52.589Z,15.39
2022-09-29T11:10:52.597Z,15.40
2022-09-29T11:11:56.557Z,15.40
2022-09-29T11:12:52.549Z,15.42
2022-09-29T11:13:52.584Z,15.40
2022-09-29T11:14:52.533Z,15.51
2022-09-29T11:15:52.562Z,15.57
2022-09-29T11:16:52.605Z,15.57
2022-09-29T11:17:52.495Z,15.55
2022-09-29T11:18:52.489Z,15.49
2022-09-29T11:19:52.490Z,15.57
2022-09-29T11:20:52.482Z,15.67
2022-09-29T11:21:52.447Z,15.76
2022-09-29T11:22:52.436Z,15.83
2022-09-29T11:23:52.525Z,16.01
2022-09-29T11:24:52.423Z,16.09
2022-09-29T11:25:52.406Z,16.16
2022-09-29T11:26:52.397Z,16.16
2022-09-29T11:27:52.411Z,16.20
2022-09-29T11:28:52.371Z,16.21
2022-09-29T11:29:52.359Z,16.38
2022-09-29T11:30:52.369Z,16.42
2022-09-29T11:31:52.367Z,16.35
2022-09-29T11:32:52.352Z,16.42
2022-09-29T11:33:52.480Z,16.46
2022-09-29T11:34:52.322Z,16.47
2022-09-29T11:35:52.313Z,16.56
2022-09-29T11:36:52.352Z,16.58
2022-09-29T11:37:52.327Z,16.58
2022-09-29T11:38:52.283Z,16.53
2022-09-29T11:39:52.282Z,16.49
2022-09-29T11:40:52.235Z,16.49
2022-09-29T11:41:52.229Z,16.54
2022-09-29T11:42:52.242Z,16.64
2022-09-29T11:43:52.243Z,16.58
2022-09-29T11:44:52.236Z,16.56
2022-09-29T11:45:52.241Z,16.54
2022-09-29T11:46:52.171Z,16.68
2022-09-29T11:47:52.167Z,16.74
2022-09-29T11:48:52.147Z,16.86
2022-09-29T11:49:52.157Z,17.05
2022-09-29T11:50:52.144Z,16.96
2022-09-29T11:51:52.143Z,16.96
2022-09-29T11:52:52.137Z,17.05
2022-09-29T11:53:52.151Z,17.02
2022-09-29T11:54:52.081Z,17.06
2022-09-29T11:55:52.090Z,17.08
2022-09-29T11:56:52.088Z,17.06
2022-09-29T11:57:52.057Z,17.08
2022-09-29T11:58:52.041Z,17.12
2022-09-29T11:59:52.082Z,17.22
2022-09-29T12:00:52.018Z,17.20
2022-09-29T12:01:52.014Z,17.20
2022-09-29T12:02:52.075Z,17.19
2022-09-29T12:03:51.982Z,17.19
2022-09-29T12:04:51.992Z,17.31
2022-09-29T12:05:51.961Z,17.42
2022-09-29T12:06:51.955Z,17.46
2022-09-29T12:07:51.966Z,17.39
2022-09-29T12:08:51.932Z,17.39
2022-09-29T12:09:51.982Z,17.26
2022-09-29T12:10:51.908Z,17.16
2022-09-29T12:12:11.569Z,17.11
2022-09-29T12:12:51.894Z,17.08
2022-09-29T12:13:51.872Z,17.06
2022-09-29T12:14:51.894Z,17.01
2022-09-29T12:15:51.873Z,17.02
2022-09-29T12:16:51.883Z,16.99
2022-09-29T12:17:51.871Z,16.99
2022-09-29T12:18:51.820Z,17.02
2022-09-29T12:19:51.808Z,17.02
2022-09-29T12:20:51.807Z,17.06
2022-09-29T12:21:51.784Z,17.06
2022-09-29T12:22:51.785Z,17.09
2022-09-29T12:23:52.025Z,17.06
2022-09-29T12:24:51.755Z,17.08
2022-09-29T12:25:51.744Z,17.16
2022-09-29T12:26:51.729Z,17.15
2022-09-29T12:27:51.720Z,17.14
2022-09-29T12:28:51.706Z,17.19
2022-09-29T12:29:51.724Z,17.09
2022-09-29T12:30:51.852Z,17.04
2022-09-29T12:31:51.683Z,17.12
2022-09-29T12:32:51.684Z,17.06
2022-09-29T12:33:51.691Z,16.91
2022-09-29T12:34:51.645Z,16.93
2022-09-29T12:35:51.636Z,16.99
2022-09-29T12:36:51.642Z,16.93
2022-09-29T12:37:51.656Z,16.87
2022-09-29T12:38:51.597Z,16.81
2022-09-29T12:39:51.630Z,16.90
2022-09-29T12:40:51.597Z,17.08
2022-09-29T12:41:51.586Z,16.90
2022-09-29T12:42:51.572Z,16.93
2022-09-29T12:43:51.542Z,16.96
2022-09-29T12:44:51.542Z,16.90
2022-09-29T12:45:51.624Z,16.91
2022-09-29T12:46:51.533Z,16.93
2022-09-29T12:47:51.559Z,16.83
2022-09-29T12:48:51.487Z,16.81
2022-09-29T12:49:51.476Z,16.90
2022-09-29T12:50:51.476Z,16.89
2022-09-29T12:51:51.467Z,16.87
2022-09-29T12:52:51.445Z,16.93
2022-09-29T12:53:51.457Z,16.87
2022-09-29T12:54:51.444Z,16.91
2022-09-29T12:55:51.483Z,17.01
2022-09-29T12:56:51.403Z,17.11
2022-09-29T12:57:51.388Z,17.11
2022-09-29T12:58:51.393Z,17.12
2022-09-29T12:59:51.397Z,17.11
2022-09-29T13:00:51.361Z,17.20